sensor_id;sensor_type;location;lat;lon;timestamp;temperature;humidity
65462;DHT22;53236;43.666;18.444;2023-11-21T00:00:21;6.00;99.90
65462;DHT22;53236;43.666;18.444;2023-11-21T00:02:47;6.00;99.90
65462;DHT22;53236;43.666;18.444;2023-11-21T00:05:14;6.10;99.90
65462;DHT22;53236;43.666;18.444;2023-11-21T00:07:43;6.10;99.90
65462;DHT22;53236;43.666;18.444;2023-11-21T00:10:09;6.00;99.90
65462;DHT22;53236;43.666;18.444;2023-11-21T00:12:37;6.00;99.90
65462;DHT22;53236;43.666;18.444;2023-11-21T00:15:03;6.00;99.90
65462;DHT22;53236;43.666;18.444;2023-11-21T00:17:34;6.10;99.90
65462;DHT22;53236;43.666;18.444;2023-11-21T00:20:00;6.10;99.90
65462;DHT22;53236;43.666;18.444;2023-11-21T00:22:26;6.10;99.90
65462;DHT22;53236;43.666;18.444;2023-11-21T00:24:52;6.10;99.90
65462;DHT22;53236;43.666;18.444;2023-11-21T00:27:17;6.10;99.90
65462;DHT22;53236;43.666;18.444;2023-11-21T00:29:43;6.10;99.90
65462;DHT22;53236;43.666;18.444;2023-11-21T00:32:09;6.20;99.90
65462;DHT22;53236;43.666;18.444;2023-11-21T00:34:35;6.20;99.90
65462;DHT22;53236;43.666;18.444;2023-11-21T00:37:00;6.10;99.90
65462;DHT22;53236;43.666;18.444;2023-11-21T00:39:26;6.10;99.90
65462;DHT22;53236;43.666;18.444;2023-11-21T00:41:52;6.00;99.90
65462;DHT22;53236;43.666;18.444;2023-11-21T00:44:18;6.00;99.90
65462;DHT22;53236;43.666;18.444;2023-11-21T00:46:44;6.00;99.90
65462;DHT22;53236;43.666;18.444;2023-11-21T00:49:10;6.00;99.90
65462;DHT22;53236;43.666;18.444;2023-11-21T00:51:35;6.00;99.90
65462;DHT22;53236;43.666;18.444;2023-11-21T00:54:01;6.00;99.90
65462;DHT22;53236;43.666;18.444;2023-11-21T00:56:27;6.10;99.90
65462;DHT22;53236;43.666;18.444;2023-11-21T00:58:53;6.00;99.90
65462;DHT22;53236;43.666;18.444;2023-11-21T01:01:20;6.00;99.90
65462;DHT22;53236;43.666;18.444;2023-11-21T01:03:46;6.00;99.90
65462;DHT22;53236;43.666;18.444;2023-11-21T01:06:12;6.10;99.90
65462;DHT22;53236;43.666;18.444;2023-11-21T01:08:38;6.10;99.90
65462;DHT22;53236;43.666;18.444;2023-11-21T01:11:04;6.00;99.90
65462;DHT22;53236;43.666;18.444;2023-11-21T01:13:30;6.00;99.90
65462;DHT22;53236;43.666;18.444;2023-11-21T01:15:56;6.00;99.90
65462;DHT22;53236;43.666;18.444;2023-11-21T01:18:22;6.00;99.90
65462;DHT22;53236;43.666;18.444;2023-11-21T01:20:48;6.00;99.90
65462;DHT22;53236;43.666;18.444;2023-11-21T01:23:14;6.10;99.90
65462;DHT22;53236;43.666;18.444;2023-11-21T01:25:39;6.10;99.90
65462;DHT22;53236;43.666;18.444;2023-11-21T01:28:05;6.10;99.90
65462;DHT22;53236;43.666;18.444;2023-11-21T01:30:31;6.10;99.90
65462;DHT22;53236;43.666;18.444;2023-11-21T01:32:58;6.20;99.90
65462;DHT22;53236;43.666;18.444;2023-11-21T01:35:24;6.30;99.90
65462;DHT22;53236;43.666;18.444;2023-11-21T01:37:50;6.20;99.90
65462;DHT22;53236;43.666;18.444;2023-11-21T01:40:16;6.20;99.90
65462;DHT22;53236;43.666;18.444;2023-11-21T01:42:42;6.10;99.90
65462;DHT22;53236;43.666;18.444;2023-11-21T01:45:13;6.10;99.90
65462;DHT22;53236;43.666;18.444;2023-11-21T01:47:39;6.10;99.90
65462;DHT22;53236;43.666;18.444;2023-11-21T01:50:07;6.10;99.90
65462;DHT22;53236;43.666;18.444;2023-11-21T01:52:35;6.10;99.90
65462;DHT22;53236;43.666;18.444;2023-11-21T01:55:02;6.10;99.90
65462;DHT22;53236;43.666;18.444;2023-11-21T01:57:29;6.10;99.90
65462;DHT22;53236;43.666;18.444;2023-11-21T01:59:55;6.10;99.90
65462;DHT22;53236;43.666;18.444;2023-11-21T02:02:21;6.10;99.90
65462;DHT22;53236;43.666;18.444;2023-11-21T02:04:47;6.10;99.90
65462;DHT22;53236;43.666;18.444;2023-11-21T02:07:13;6.10;99.90
65462;DHT22;53236;43.666;18.444;2023-11-21T02:09:38;6.10;99.90
65462;DHT22;53236;43.666;18.444;2023-11-21T02:12:08;6.20;99.90
65462;DHT22;53236;43.666;18.444;2023-11-21T02:14:36;6.20;99.90
65462;DHT22;53236;43.666;18.444;2023-11-21T02:17:02;6.20;99.90
65462;DHT22;53236;43.666;18.444;2023-11-21T02:19:29;6.20;99.90
65462;DHT22;53236;43.666;18.444;2023-11-21T02:21:57;6.10;99.90
65462;DHT22;53236;43.666;18.444;2023-11-21T02:24:29;6.10;99.90
65462;DHT22;53236;43.666;18.444;2023-11-21T02:26:54;6.10;99.90
65462;DHT22;53236;43.666;18.444;2023-11-21T02:29:21;6.10;99.90
65462;DHT22;53236;43.666;18.444;2023-11-21T02:31:49;6.20;99.90
65462;DHT22;53236;43.666;18.444;2023-11-21T02:34:16;6.20;99.90
65462;DHT22;53236;43.666;18.444;2023-11-21T02:36:42;6.30;99.90
65462;DHT22;53236;43.666;18.444;2023-11-21T02:39:09;6.20;99.90
65462;DHT22;53236;43.666;18.444;2023-11-21T02:41:38;6.20;99.90
65462;DHT22;53236;43.666;18.444;2023-11-21T02:44:05;6.20;99.90
65462;DHT22;53236;43.666;18.444;2023-11-21T02:46:36;6.30;99.90
65462;DHT22;53236;43.666;18.444;2023-11-21T02:49:03;6.30;99.90
65462;DHT22;53236;43.666;18.444;2023-11-21T02:51:29;6.30;99.90
65462;DHT22;53236;43.666;18.444;2023-11-21T02:53:56;6.30;99.90
65462;DHT22;53236;43.666;18.444;2023-11-21T02:56:26;6.30;99.90
65462;DHT22;53236;43.666;18.444;2023-11-21T02:58:54;6.30;99.90
65462;DHT22;53236;43.666;18.444;2023-11-21T03:01:20;6.30;99.90
65462;DHT22;53236;43.666;18.444;2023-11-21T03:03:46;6.30;99.90
65462;DHT22;53236;43.666;18.444;2023-11-21T03:06:19;6.30;99.90
65462;DHT22;53236;43.666;18.444;2023-11-21T03:08:45;6.20;99.90
65462;DHT22;53236;43.666;18.444;2023-11-21T03:11:11;6.10;99.90
65462;DHT22;53236;43.666;18.444;2023-11-21T03:13:41;6.20;99.90
65462;DHT22;53236;43.666;18.444;2023-11-21T03:16:11;6.20;99.90
65462;DHT22;53236;43.666;18.444;2023-11-21T03:18:38;6.10;99.90
65462;DHT22;53236;43.666;18.444;2023-11-21T03:21:04;6.20;99.90
65462;DHT22;53236;43.666;18.444;2023-11-21T03:23:31;6.20;99.90
65462;DHT22;53236;43.666;18.444;2023-11-21T03:25:57;6.20;99.90
65462;DHT22;53236;43.666;18.444;2023-11-21T03:28:23;6.30;99.90
65462;DHT22;53236;43.666;18.444;2023-11-21T03:30:49;6.30;99.90
65462;DHT22;53236;43.666;18.444;2023-11-21T03:33:15;6.30;99.90
65462;DHT22;53236;43.666;18.444;2023-11-21T03:35:40;6.40;99.90
65462;DHT22;53236;43.666;18.444;2023-11-21T03:38:07;6.40;99.90
65462;DHT22;53236;43.666;18.444;2023-11-21T03:40:35;6.40;99.90
65462;DHT22;53236;43.666;18.444;2023-11-21T03:43:01;6.50;99.90
65462;DHT22;53236;43.666;18.444;2023-11-21T03:45:26;6.40;99.90
65462;DHT22;53236;43.666;18.444;2023-11-21T03:47:52;6.40;99.90
65462;DHT22;53236;43.666;18.444;2023-11-21T03:50:18;6.40;99.90
65462;DHT22;53236;43.666;18.444;2023-11-21T03:52:44;6.40;99.90
65462;DHT22;53236;43.666;18.444;2023-11-21T03:55:10;6.40;99.90
65462;DHT22;53236;43.666;18.444;2023-11-21T03:57:36;6.40;99.90
65462;DHT22;53236;43.666;18.444;2023-11-21T04:00:03;6.50;99.90
65462;DHT22;53236;43.666;18.444;2023-11-21T04:02:34;6.50;99.90
65462;DHT22;53236;43.666;18.444;2023-11-21T04:04:59;6.50;99.90
65462;DHT22;53236;43.666;18.444;2023-11-21T04:07:25;6.60;99.90
65462;DHT22;53236;43.666;18.444;2023-11-21T04:09:51;6.60;99.90
65462;DHT22;53236;43.666;18.444;2023-11-21T04:12:17;6.60;99.90
65462;DHT22;53236;43.666;18.444;2023-11-21T04:14:42;6.60;99.90
65462;DHT22;53236;43.666;18.444;2023-11-21T04:17:08;6.70;99.90
65462;DHT22;53236;43.666;18.444;2023-11-21T04:19:35;6.70;99.90
65462;DHT22;53236;43.666;18.444;2023-11-21T04:22:00;6.70;99.90
65462;DHT22;53236;43.666;18.444;2023-11-21T04:24:26;6.60;99.90
65462;DHT22;53236;43.666;18.444;2023-11-21T04:26:52;6.60;99.90
65462;DHT22;53236;43.666;18.444;2023-11-21T04:29:19;6.60;99.90
65462;DHT22;53236;43.666;18.444;2023-11-21T04:31:44;6.60;99.90
65462;DHT22;53236;43.666;18.444;2023-11-21T04:34:10;6.70;99.90
65462;DHT22;53236;43.666;18.444;2023-11-21T04:36:36;6.60;99.90
65462;DHT22;53236;43.666;18.444;2023-11-21T04:39:02;6.70;99.90
65462;DHT22;53236;43.666;18.444;2023-11-21T04:41:28;6.60;99.90
65462;DHT22;53236;43.666;18.444;2023-11-21T04:43:53;6.50;99.90
65462;DHT22;53236;43.666;18.444;2023-11-21T04:46:19;6.50;99.90
65462;DHT22;53236;43.666;18.444;2023-11-21T04:48:45;6.60;99.90
65462;DHT22;53236;43.666;18.444;2023-11-21T04:51:10;6.60;99.90
65462;DHT22;53236;43.666;18.444;2023-11-21T04:53:39;6.50;99.90
65462;DHT22;53236;43.666;18.444;2023-11-21T04:56:05;6.60;99.90
65462;DHT22;53236;43.666;18.444;2023-11-21T04:58:31;6.70;99.90
65462;DHT22;53236;43.666;18.444;2023-11-21T05:00:58;6.70;99.90
65462;DHT22;53236;43.666;18.444;2023-11-21T05:03:24;6.80;99.90
65462;DHT22;53236;43.666;18.444;2023-11-21T05:05:50;6.90;99.90
65462;DHT22;53236;43.666;18.444;2023-11-21T05:08:15;6.90;99.90
65462;DHT22;53236;43.666;18.444;2023-11-21T05:10:41;6.90;99.90
65462;DHT22;53236;43.666;18.444;2023-11-21T05:13:07;6.90;99.90
65462;DHT22;53236;43.666;18.444;2023-11-21T05:15:36;6.90;99.90
65462;DHT22;53236;43.666;18.444;2023-11-21T05:18:01;6.90;99.90
65462;DHT22;53236;43.666;18.444;2023-11-21T05:20:28;6.90;99.90
65462;DHT22;53236;43.666;18.444;2023-11-21T05:22:54;6.80;99.90
65462;DHT22;53236;43.666;18.444;2023-11-21T05:25:19;6.80;99.90
65462;DHT22;53236;43.666;18.444;2023-11-21T05:27:46;6.80;99.90
65462;DHT22;53236;43.666;18.444;2023-11-21T05:30:13;6.80;99.90
65462;DHT22;53236;43.666;18.444;2023-11-21T05:32:40;6.90;99.90
65462;DHT22;53236;43.666;18.444;2023-11-21T05:35:08;6.90;99.90
65462;DHT22;53236;43.666;18.444;2023-11-21T05:37:44;7.10;99.90
65462;DHT22;53236;43.666;18.444;2023-11-21T05:40:11;7.20;99.90
65462;DHT22;53236;43.666;18.444;2023-11-21T05:42:39;7.40;99.90
65462;DHT22;53236;43.666;18.444;2023-11-21T05:45:06;7.50;99.90
65462;DHT22;53236;43.666;18.444;2023-11-21T05:47:37;7.60;99.90
65462;DHT22;53236;43.666;18.444;2023-11-21T05:50:05;7.70;99.90
65462;DHT22;53236;43.666;18.444;2023-11-21T05:52:31;7.80;99.90
65462;DHT22;53236;43.666;18.444;2023-11-21T05:54:58;7.80;99.90
65462;DHT22;53236;43.666;18.444;2023-11-21T05:57:23;7.90;99.90
65462;DHT22;53236;43.666;18.444;2023-11-21T05:59:49;7.90;99.90
65462;DHT22;53236;43.666;18.444;2023-11-21T06:02:15;7.90;99.90
65462;DHT22;53236;43.666;18.444;2023-11-21T06:04:41;7.90;99.90
65462;DHT22;53236;43.666;18.444;2023-11-21T06:07:07;8.00;99.90
65462;DHT22;53236;43.666;18.444;2023-11-21T06:09:32;8.10;99.90
65462;DHT22;53236;43.666;18.444;2023-11-21T06:11:58;8.20;99.90
65462;DHT22;53236;43.666;18.444;2023-11-21T06:14:24;8.30;99.90
65462;DHT22;53236;43.666;18.444;2023-11-21T06:16:50;8.30;99.90
65462;DHT22;53236;43.666;18.444;2023-11-21T06:19:17;8.30;99.90
65462;DHT22;53236;43.666;18.444;2023-11-21T06:21:46;8.40;99.90
65462;DHT22;53236;43.666;18.444;2023-11-21T06:24:12;8.40;99.90
65462;DHT22;53236;43.666;18.444;2023-11-21T06:26:38;8.60;99.90
65462;DHT22;53236;43.666;18.444;2023-11-21T06:29:04;8.70;99.90
65462;DHT22;53236;43.666;18.444;2023-11-21T06:31:30;8.70;99.90
65462;DHT22;53236;43.666;18.444;2023-11-21T06:33:58;8.60;99.90
65462;DHT22;53236;43.666;18.444;2023-11-21T06:36:25;8.70;99.90
65462;DHT22;53236;43.666;18.444;2023-11-21T06:38:52;8.70;99.90
65462;DHT22;53236;43.666;18.444;2023-11-21T06:41:18;8.60;99.90
65462;DHT22;53236;43.666;18.444;2023-11-21T06:43:43;8.60;99.90
65462;DHT22;53236;43.666;18.444;2023-11-21T06:46:12;8.70;99.90
65462;DHT22;53236;43.666;18.444;2023-11-21T06:48:44;8.60;99.90
65462;DHT22;53236;43.666;18.444;2023-11-21T06:51:10;8.60;99.90
65462;DHT22;53236;43.666;18.444;2023-11-21T06:53:37;8.60;99.90
65462;DHT22;53236;43.666;18.444;2023-11-21T06:56:03;8.70;99.90
65462;DHT22;53236;43.666;18.444;2023-11-21T06:58:29;8.80;99.90
65462;DHT22;53236;43.666;18.444;2023-11-21T07:00:54;8.80;99.90
65462;DHT22;53236;43.666;18.444;2023-11-21T07:03:20;8.80;99.90
65462;DHT22;53236;43.666;18.444;2023-11-21T07:05:46;8.90;99.90
65462;DHT22;53236;43.666;18.444;2023-11-21T07:08:12;9.00;99.90
65462;DHT22;53236;43.666;18.444;2023-11-21T07:10:38;9.10;99.90
65462;DHT22;53236;43.666;18.444;2023-11-21T07:13:04;9.00;99.90
65462;DHT22;53236;43.666;18.444;2023-11-21T07:15:30;9.20;99.90
65462;DHT22;53236;43.666;18.444;2023-11-21T07:17:55;9.20;99.90
65462;DHT22;53236;43.666;18.444;2023-11-21T07:20:21;9.20;99.90
65462;DHT22;53236;43.666;18.444;2023-11-21T07:22:47;9.30;99.90
65462;DHT22;53236;43.666;18.444;2023-11-21T07:25:13;9.30;99.90
65462;DHT22;53236;43.666;18.444;2023-11-21T07:27:38;9.30;99.90
65462;DHT22;53236;43.666;18.444;2023-11-21T07:30:05;9.40;99.90
65462;DHT22;53236;43.666;18.444;2023-11-21T07:32:32;9.40;99.90
65462;DHT22;53236;43.666;18.444;2023-11-21T07:34:57;9.40;99.90
65462;DHT22;53236;43.666;18.444;2023-11-21T07:37:25;9.40;99.90
65462;DHT22;53236;43.666;18.444;2023-11-21T07:39:54;9.40;99.90
65462;DHT22;53236;43.666;18.444;2023-11-21T07:42:23;9.50;99.90
65462;DHT22;53236;43.666;18.444;2023-11-21T07:44:49;9.50;99.90
65462;DHT22;53236;43.666;18.444;2023-11-21T07:47:15;9.60;99.90
65462;DHT22;53236;43.666;18.444;2023-11-21T07:49:41;9.60;99.90
65462;DHT22;53236;43.666;18.444;2023-11-21T07:52:09;9.60;99.90
65462;DHT22;53236;43.666;18.444;2023-11-21T07:54:35;9.50;99.90
65462;DHT22;53236;43.666;18.444;2023-11-21T07:57:02;9.60;99.90
65462;DHT22;53236;43.666;18.444;2023-11-21T07:59:29;9.50;99.90
65462;DHT22;53236;43.666;18.444;2023-11-21T08:01:55;9.50;99.90
65462;DHT22;53236;43.666;18.444;2023-11-21T08:04:21;9.50;99.90
65462;DHT22;53236;43.666;18.444;2023-11-21T08:06:46;9.50;99.90
65462;DHT22;53236;43.666;18.444;2023-11-21T08:09:12;9.70;99.90
65462;DHT22;53236;43.666;18.444;2023-11-21T08:11:38;9.70;99.90
65462;DHT22;53236;43.666;18.444;2023-11-21T08:14:05;9.70;99.90
65462;DHT22;53236;43.666;18.444;2023-11-21T08:16:31;9.80;99.90
65462;DHT22;53236;43.666;18.444;2023-11-21T08:18:56;9.80;99.90
65462;DHT22;53236;43.666;18.444;2023-11-21T08:21:22;9.80;99.90
65462;DHT22;53236;43.666;18.444;2023-11-21T08:23:54;9.70;99.90
65462;DHT22;53236;43.666;18.444;2023-11-21T08:26:24;9.80;99.90
65462;DHT22;53236;43.666;18.444;2023-11-21T08:28:49;9.90;99.90
65462;DHT22;53236;43.666;18.444;2023-11-21T08:31:24;9.90;99.90
65462;DHT22;53236;43.666;18.444;2023-11-21T08:33:50;9.90;99.90
65462;DHT22;53236;43.666;18.444;2023-11-21T08:36:15;9.90;99.90
65462;DHT22;53236;43.666;18.444;2023-11-21T08:38:41;9.80;99.90
65462;DHT22;53236;43.666;18.444;2023-11-21T08:41:07;9.70;99.90
65462;DHT22;53236;43.666;18.444;2023-11-21T08:43:36;9.70;99.90
65462;DHT22;53236;43.666;18.444;2023-11-21T08:46:08;9.80;99.90
65462;DHT22;53236;43.666;18.444;2023-11-21T08:48:37;9.80;99.90
65462;DHT22;53236;43.666;18.444;2023-11-21T08:51:03;9.80;99.90
65462;DHT22;53236;43.666;18.444;2023-11-21T08:53:30;9.80;99.90
65462;DHT22;53236;43.666;18.444;2023-11-21T08:55:56;9.80;99.90
65462;DHT22;53236;43.666;18.444;2023-11-21T08:58:22;9.90;99.90
65462;DHT22;53236;43.666;18.444;2023-11-21T09:00:48;10.00;99.90
65462;DHT22;53236;43.666;18.444;2023-11-21T09:03:14;9.90;99.90
65462;DHT22;53236;43.666;18.444;2023-11-21T09:05:39;9.90;99.90
65462;DHT22;53236;43.666;18.444;2023-11-21T09:08:05;9.90;99.90
65462;DHT22;53236;43.666;18.444;2023-11-21T09:10:33;9.80;99.90
65462;DHT22;53236;43.666;18.444;2023-11-21T09:13:01;9.80;99.90
65462;DHT22;53236;43.666;18.444;2023-11-21T09:15:27;9.80;99.90
65462;DHT22;53236;43.666;18.444;2023-11-21T09:17:53;9.80;99.90
65462;DHT22;53236;43.666;18.444;2023-11-21T09:20:19;9.70;99.90
65462;DHT22;53236;43.666;18.444;2023-11-21T09:22:48;9.80;99.90
65462;DHT22;53236;43.666;18.444;2023-11-21T09:25:14;9.90;99.90
65462;DHT22;53236;43.666;18.444;2023-11-21T09:27:40;9.90;99.90
65462;DHT22;53236;43.666;18.444;2023-11-21T09:30:07;9.90;99.90
65462;DHT22;53236;43.666;18.444;2023-11-21T09:32:37;9.90;99.90
65462;DHT22;53236;43.666;18.444;2023-11-21T09:35:04;9.90;99.90
65462;DHT22;53236;43.666;18.444;2023-11-21T09:37:31;10.00;99.90
65462;DHT22;53236;43.666;18.444;2023-11-21T09:39:56;9.90;99.90
65462;DHT22;53236;43.666;18.444;2023-11-21T09:42:40;9.90;99.90
65462;DHT22;53236;43.666;18.444;2023-11-21T09:47:38;10.00;99.90
65462;DHT22;53236;43.666;18.444;2023-11-21T09:50:05;10.00;99.90
65462;DHT22;53236;43.666;18.444;2023-11-21T09:55:37;10.10;99.90
65462;DHT22;53236;43.666;18.444;2023-11-21T09:58:04;10.00;99.90
65462;DHT22;53236;43.666;18.444;2023-11-21T10:00:36;10.10;99.90
65462;DHT22;53236;43.666;18.444;2023-11-21T10:03:03;10.00;99.90
65462;DHT22;53236;43.666;18.444;2023-11-21T10:05:29;10.00;99.90
65462;DHT22;53236;43.666;18.444;2023-11-21T10:07:59;10.10;99.90
65462;DHT22;53236;43.666;18.444;2023-11-21T10:10:27;10.10;99.90
65462;DHT22;53236;43.666;18.444;2023-11-21T10:12:56;10.20;99.90
65462;DHT22;53236;43.666;18.444;2023-11-21T10:15:23;10.20;99.90
65462;DHT22;53236;43.666;18.444;2023-11-21T10:17:53;10.20;99.90
65462;DHT22;53236;43.666;18.444;2023-11-21T10:20:25;10.20;99.90
65462;DHT22;53236;43.666;18.444;2023-11-21T10:22:52;10.20;99.90
65462;DHT22;53236;43.666;18.444;2023-11-21T10:25:17;10.20;99.90
65462;DHT22;53236;43.666;18.444;2023-11-21T10:27:48;10.10;99.90
65462;DHT22;53236;43.666;18.444;2023-11-21T10:30:16;10.20;99.90
65462;DHT22;53236;43.666;18.444;2023-11-21T10:32:42;10.10;99.90
65462;DHT22;53236;43.666;18.444;2023-11-21T10:35:09;10.20;99.90
65462;DHT22;53236;43.666;18.444;2023-11-21T10:37:40;10.20;99.90
65462;DHT22;53236;43.666;18.444;2023-11-21T10:40:10;10.20;99.90
65462;DHT22;53236;43.666;18.444;2023-11-21T10:42:41;10.30;99.90
65462;DHT22;53236;43.666;18.444;2023-11-21T10:45:08;10.30;99.90
65462;DHT22;53236;43.666;18.444;2023-11-21T10:47:43;10.20;99.90
65462;DHT22;53236;43.666;18.444;2023-11-21T10:50:09;10.00;99.90
65462;DHT22;53236;43.666;18.444;2023-11-21T10:52:40;10.10;99.90
65462;DHT22;53236;43.666;18.444;2023-11-21T10:55:18;10.00;99.90
65462;DHT22;53236;43.666;18.444;2023-11-21T10:57:53;10.10;99.90
65462;DHT22;53236;43.666;18.444;2023-11-21T11:00:19;10.00;99.90
65462;DHT22;53236;43.666;18.444;2023-11-21T11:02:52;10.00;99.90
65462;DHT22;53236;43.666;18.444;2023-11-21T11:05:21;9.90;99.90
65462;DHT22;53236;43.666;18.444;2023-11-21T11:08:08;9.90;99.90
65462;DHT22;53236;43.666;18.444;2023-11-21T11:10:34;9.90;99.90
65462;DHT22;53236;43.666;18.444;2023-11-21T11:13:00;9.80;99.90
65462;DHT22;53236;43.666;18.444;2023-11-21T11:15:27;9.70;99.90
65462;DHT22;53236;43.666;18.444;2023-11-21T11:17:54;9.80;99.90
65462;DHT22;53236;43.666;18.444;2023-11-21T11:20:27;9.80;99.90
65462;DHT22;53236;43.666;18.444;2023-11-21T11:28:26;9.80;99.90
65462;DHT22;53236;43.666;18.444;2023-11-21T11:34:08;9.70;99.90
65462;DHT22;53236;43.666;18.444;2023-11-21T11:37:03;9.60;99.90
65462;DHT22;53236;43.666;18.444;2023-11-21T11:39:38;9.60;99.90
65462;DHT22;53236;43.666;18.444;2023-11-21T11:42:08;9.50;99.90
65462;DHT22;53236;43.666;18.444;2023-11-21T11:47:15;9.50;99.90
65462;DHT22;53236;43.666;18.444;2023-11-21T11:50:08;9.50;99.90
65462;DHT22;53236;43.666;18.444;2023-11-21T11:52:46;9.50;99.90
65462;DHT22;53236;43.666;18.444;2023-11-21T11:55:14;9.50;99.90
65462;DHT22;53236;43.666;18.444;2023-11-21T11:57:42;9.50;99.90
65462;DHT22;53236;43.666;18.444;2023-11-21T12:00:09;9.50;99.90
65462;DHT22;53236;43.666;18.444;2023-11-21T12:02:36;9.40;99.90
65462;DHT22;53236;43.666;18.444;2023-11-21T12:05:09;9.40;99.90
65462;DHT22;53236;43.666;18.444;2023-11-21T12:07:55;9.40;99.90
65462;DHT22;53236;43.666;18.444;2023-11-21T12:10:27;9.10;99.90
65462;DHT22;53236;43.666;18.444;2023-11-21T12:12:55;8.80;99.90
65462;DHT22;53236;43.666;18.444;2023-11-21T12:15:22;8.70;99.90
65462;DHT22;53236;43.666;18.444;2023-11-21T12:17:49;8.50;99.90
65462;DHT22;53236;43.666;18.444;2023-11-21T12:20:18;8.30;99.90
65462;DHT22;53236;43.666;18.444;2023-11-21T12:22:46;8.00;99.90
65462;DHT22;53236;43.666;18.444;2023-11-21T12:25:19;7.70;99.90
65462;DHT22;53236;43.666;18.444;2023-11-21T12:27:46;7.70;99.90
65462;DHT22;53236;43.666;18.444;2023-11-21T12:30:13;7.60;99.90
65462;DHT22;53236;43.666;18.444;2023-11-21T12:32:40;7.70;99.90
65462;DHT22;53236;43.666;18.444;2023-11-21T12:35:08;7.70;99.90
65462;DHT22;53236;43.666;18.444;2023-11-21T12:37:40;7.70;99.90
65462;DHT22;53236;43.666;18.444;2023-11-21T12:40:08;7.80;99.90
65462;DHT22;53236;43.666;18.444;2023-11-21T12:42:37;7.80;99.90
65462;DHT22;53236;43.666;18.444;2023-11-21T12:45:08;7.80;99.90
65462;DHT22;53236;43.666;18.444;2023-11-21T12:47:35;7.80;99.90
65462;DHT22;53236;43.666;18.444;2023-11-21T12:50:02;7.70;99.90
65462;DHT22;53236;43.666;18.444;2023-11-21T12:52:28;7.70;99.90
65462;DHT22;53236;43.666;18.444;2023-11-21T12:54:54;7.70;99.90
65462;DHT22;53236;43.666;18.444;2023-11-21T13:20:45;7.60;99.90
65462;DHT22;53236;43.666;18.444;2023-11-21T13:23:12;7.80;99.90
65462;DHT22;53236;43.666;18.444;2023-11-21T13:25:40;7.90;99.90
65462;DHT22;53236;43.666;18.444;2023-11-21T13:28:07;7.90;99.90
65462;DHT22;53236;43.666;18.444;2023-11-21T13:30:33;7.90;99.90
65462;DHT22;53236;43.666;18.444;2023-11-21T13:33:03;7.90;99.90
65462;DHT22;53236;43.666;18.444;2023-11-21T13:35:36;7.90;99.90
65462;DHT22;53236;43.666;18.444;2023-11-21T13:38:15;7.90;99.90
65462;DHT22;53236;43.666;18.444;2023-11-21T13:40:49;7.90;99.90
65462;DHT22;53236;43.666;18.444;2023-11-21T13:43:16;7.90;99.90
65462;DHT22;53236;43.666;18.444;2023-11-21T13:45:45;7.90;99.90
65462;DHT22;53236;43.666;18.444;2023-11-21T13:48:12;7.90;99.90
65462;DHT22;53236;43.666;18.444;2023-11-21T13:50:48;7.90;99.90
65462;DHT22;53236;43.666;18.444;2023-11-21T13:53:24;8.00;99.90
65462;DHT22;53236;43.666;18.444;2023-11-21T13:55:54;8.00;99.90
65462;DHT22;53236;43.666;18.444;2023-11-21T13:58:20;8.00;99.90
65462;DHT22;53236;43.666;18.444;2023-11-21T14:01:05;8.00;99.90
65462;DHT22;53236;43.666;18.444;2023-11-21T14:03:38;8.10;99.90
65462;DHT22;53236;43.666;18.444;2023-11-21T14:06:15;8.10;99.90
65462;DHT22;53236;43.666;18.444;2023-11-21T14:08:48;8.10;99.90
65462;DHT22;53236;43.666;18.444;2023-11-21T14:11:14;8.00;99.90
65462;DHT22;53236;43.666;18.444;2023-11-21T14:13:43;8.10;99.90
65462;DHT22;53236;43.666;18.444;2023-11-21T14:16:13;8.10;99.90
65462;DHT22;53236;43.666;18.444;2023-11-21T14:18:39;8.00;99.90
65462;DHT22;53236;43.666;18.444;2023-11-21T14:21:18;8.00;99.90
65462;DHT22;53236;43.666;18.444;2023-11-21T14:23:44;8.00;99.90
65462;DHT22;53236;43.666;18.444;2023-11-21T14:26:11;8.00;99.90
65462;DHT22;53236;43.666;18.444;2023-11-21T14:28:41;8.00;99.90
65462;DHT22;53236;43.666;18.444;2023-11-21T14:31:07;8.00;99.90
65462;DHT22;53236;43.666;18.444;2023-11-21T14:33:34;8.00;99.90
65462;DHT22;53236;43.666;18.444;2023-11-21T14:36:00;8.00;99.90
65462;DHT22;53236;43.666;18.444;2023-11-21T14:38:27;8.00;99.90
65462;DHT22;53236;43.666;18.444;2023-11-21T14:40:53;8.10;99.90
65462;DHT22;53236;43.666;18.444;2023-11-21T14:43:19;8.00;99.90
65462;DHT22;53236;43.666;18.444;2023-11-21T14:45:47;8.00;99.90
65462;DHT22;53236;43.666;18.444;2023-11-21T14:48:14;8.00;99.90
65462;DHT22;53236;43.666;18.444;2023-11-21T14:50:54;8.00;99.90
65462;DHT22;53236;43.666;18.444;2023-11-21T14:53:28;8.00;99.90
65462;DHT22;53236;43.666;18.444;2023-11-21T14:56:20;8.00;99.90
65462;DHT22;53236;43.666;18.444;2023-11-21T14:58:56;8.00;99.90
65462;DHT22;53236;43.666;18.444;2023-11-21T15:01:24;8.00;99.90
65462;DHT22;53236;43.666;18.444;2023-11-21T15:04:10;8.00;99.90
65462;DHT22;53236;43.666;18.444;2023-11-21T15:06:57;8.00;99.90
65462;DHT22;53236;43.666;18.444;2023-11-21T15:09:24;8.00;99.90
65462;DHT22;53236;43.666;18.444;2023-11-21T15:12:10;8.00;99.90
65462;DHT22;53236;43.666;18.444;2023-11-21T15:14:48;8.00;99.90
65462;DHT22;53236;43.666;18.444;2023-11-21T15:17:17;7.90;99.90
65462;DHT22;53236;43.666;18.444;2023-11-21T15:19:54;7.90;99.90
65462;DHT22;53236;43.666;18.444;2023-11-21T15:22:20;7.90;99.90
65462;DHT22;53236;43.666;18.444;2023-11-21T15:24:47;7.90;99.90
65462;DHT22;53236;43.666;18.444;2023-11-21T15:27:15;7.90;99.90
65462;DHT22;53236;43.666;18.444;2023-11-21T15:29:42;7.80;99.90
65462;DHT22;53236;43.666;18.444;2023-11-21T15:32:09;7.80;99.90
65462;DHT22;53236;43.666;18.444;2023-11-21T15:34:36;7.80;99.90
65462;DHT22;53236;43.666;18.444;2023-11-21T15:37:02;7.80;99.90
65462;DHT22;53236;43.666;18.444;2023-11-21T15:39:28;7.80;99.90
65462;DHT22;53236;43.666;18.444;2023-11-21T15:41:56;7.80;99.90
65462;DHT22;53236;43.666;18.444;2023-11-21T15:44:23;7.80;99.90
65462;DHT22;53236;43.666;18.444;2023-11-21T15:46:50;7.70;99.90
65462;DHT22;53236;43.666;18.444;2023-11-21T15:49:18;7.70;99.90
65462;DHT22;53236;43.666;18.444;2023-11-21T15:51:47;7.70;99.90
65462;DHT22;53236;43.666;18.444;2023-11-21T15:54:21;7.70;99.90
65462;DHT22;53236;43.666;18.444;2023-11-21T15:56:48;7.80;99.90
65462;DHT22;53236;43.666;18.444;2023-11-21T15:59:14;7.70;99.90
65462;DHT22;53236;43.666;18.444;2023-11-21T16:01:40;7.80;99.90
65462;DHT22;53236;43.666;18.444;2023-11-21T16:04:12;7.70;99.90
65462;DHT22;53236;43.666;18.444;2023-11-21T16:06:45;7.70;99.90
65462;DHT22;53236;43.666;18.444;2023-11-21T16:09:12;7.70;99.90
65462;DHT22;53236;43.666;18.444;2023-11-21T16:11:48;7.70;99.90
65462;DHT22;53236;43.666;18.444;2023-11-21T16:14:16;7.70;99.90